sensor_id;sensor_type;location;lat;lon;timestamp;pressure;altitude;pressure_sealevel;temperature;humidity
49759;BME280;35654;46.080;11.118;2023-02-20T00:02:26;100287.25;;;6.33;86.41
49759;BME280;35654;46.080;11.118;2023-02-20T00:04:53;100293.00;;;6.37;86.19
49759;BME280;35654;46.080;11.118;2023-02-20T00:07:19;100297.53;;;6.31;84.92
49759;BME280;35654;46.080;11.118;2023-02-20T00:09:45;100290.03;;;6.22;85.03
49759;BME280;35654;46.080;11.118;2023-02-20T00:12:12;100290.09;;;6.27;85.21
49759;BME280;35654;46.080;11.118;2023-02-20T00:14:38;100284.75;;;6.32;85.11
49759;BME280;35654;46.080;11.118;2023-02-20T00:17:05;100281.53;;;6.35;85.52
49759;BME280;35654;46.080;11.118;2023-02-20T00:19:32;100287.47;;;6.32;85.19
49759;BME280;35654;46.080;11.118;2023-02-20T00:21:58;100284.31;;;6.23;85.89
49759;BME280;35654;46.080;11.118;2023-02-20T00:24:24;100295.13;;;6.18;86.48
49759;BME280;35654;46.080;11.118;2023-02-20T00:26:52;100285.16;;;6.24;87.13
49759;BME280;35654;46.080;11.118;2023-02-20T00:29:22;100290.75;;;6.34;86.34
49759;BME280;35654;46.080;11.118;2023-02-20T00:31:53;100293.34;;;6.40;85.99
49759;BME280;35654;46.080;11.118;2023-02-20T00:34:19;100291.19;;;6.42;85.71
49759;BME280;35654;46.080;11.118;2023-02-20T00:36:46;100288.97;;;6.39;85.76
49759;BME280;35654;46.080;11.118;2023-02-20T00:39:13;100296.63;;;6.42;85.73
49759;BME280;35654;46.080;11.118;2023-02-20T00:41:39;100299.84;;;6.39;85.33
49759;BME280;35654;46.080;11.118;2023-02-20T00:44:06;100299.53;;;6.36;85.57
49759;BME280;35654;46.080;11.118;2023-02-20T00:46:33;100305.47;;;6.33;86.35
49759;BME280;35654;46.080;11.118;2023-02-20T00:48:58;100304.38;;;6.34;85.99
49759;BME280;35654;46.080;11.118;2023-02-20T00:51:26;100308.53;;;6.36;85.87
49759;BME280;35654;46.080;11.118;2023-02-20T00:53:52;100301.16;;;6.37;86.02
49759;BME280;35654;46.080;11.118;2023-02-20T00:56:18;100310.63;;;6.34;85.78
49759;BME280;35654;46.080;11.118;2023-02-20T00:58:44;100307.75;;;6.24;86.46
49759;BME280;35654;46.080;11.118;2023-02-20T01:01:11;100319.19;;;6.26;86.52
49759;BME280;35654;46.080;11.118;2023-02-20T01:03:38;100321.16;;;6.31;86.43
49759;BME280;35654;46.080;11.118;2023-02-20T01:06:05;100320.31;;;6.42;86.13
49759;BME280;35654;46.080;11.118;2023-02-20T01:08:31;100319.31;;;6.48;85.77
49759;BME280;35654;46.080;11.118;2023-02-20T01:10:56;100306.19;;;6.45;85.39
49759;BME280;35654;46.080;11.118;2023-02-20T01:13:24;100318.66;;;6.41;86.37
49759;BME280;35654;46.080;11.118;2023-02-20T01:15:51;100307.34;;;6.32;86.72
49759;BME280;35654;46.080;11.118;2023-02-20T01:18:18;100308.66;;;6.30;87.29
49759;BME280;35654;46.080;11.118;2023-02-20T01:20:44;100314.31;;;6.28;87.33
49759;BME280;35654;46.080;11.118;2023-02-20T01:23:11;100311.31;;;6.41;87.18
49759;BME280;35654;46.080;11.118;2023-02-20T01:25:38;100308.63;;;6.58;86.05
49759;BME280;35654;46.080;11.118;2023-02-20T01:28:04;100304.75;;;6.71;85.52
49759;BME280;35654;46.080;11.118;2023-02-20T01:30:31;100316.38;;;6.83;85.15
49759;BME280;35654;46.080;11.118;2023-02-20T01:32:58;100321.69;;;6.89;84.74
49759;BME280;35654;46.080;11.118;2023-02-20T01:35:24;100323.06;;;6.92;84.60
49759;BME280;35654;46.080;11.118;2023-02-20T01:37:56;100325.88;;;6.97;84.51
49759;BME280;35654;46.080;11.118;2023-02-20T01:40:24;100336.28;;;7.00;84.27
49759;BME280;35654;46.080;11.118;2023-02-20T01:42:51;100332.78;;;7.04;83.92
49759;BME280;35654;46.080;11.118;2023-02-20T01:47:50;100340.06;;;6.99;83.82
49759;BME280;35654;46.080;11.118;2023-02-20T01:50:26;100352.34;;;7.01;83.92
49759;BME280;35654;46.080;11.118;2023-02-20T01:52:55;100344.19;;;7.01;84.11
49759;BME280;35654;46.080;11.118;2023-02-20T01:55:43;100346.19;;;7.06;83.93
49759;BME280;35654;46.080;11.118;2023-02-20T01:58:50;100343.69;;;7.04;83.68
49759;BME280;35654;46.080;11.118;2023-02-20T02:01:16;100344.25;;;7.07;83.27
49759;BME280;35654;46.080;11.118;2023-02-20T02:03:46;100348.91;;;7.06;83.42
49759;BME280;35654;46.080;11.118;2023-02-20T02:06:14;100357.06;;;7.06;83.22
49759;BME280;35654;46.080;11.118;2023-02-20T02:08:43;100354.91;;;7.08;83.25
49759;BME280;35654;46.080;11.118;2023-02-20T02:11:18;100364.16;;;7.07;83.62
49759;BME280;35654;46.080;11.118;2023-02-20T02:13:45;100359.53;;;7.08;82.92
49759;BME280;35654;46.080;11.118;2023-02-20T02:19:44;100364.91;;;7.02;83.46
49759;BME280;35654;46.080;11.118;2023-02-20T02:39:58;100360.44;;;6.96;83.28
49759;BME280;35654;46.080;11.118;2023-02-20T02:42:51;100358.53;;;6.97;83.34
49759;BME280;35654;46.080;11.118;2023-02-20T02:48:28;100364.81;;;6.97;83.52
49759;BME280;35654;46.080;11.118;2023-02-20T02:51:02;100355.47;;;6.93;83.56
49759;BME280;35654;46.080;11.118;2023-02-20T02:53:33;100359.28;;;6.92;83.74
49759;BME280;35654;46.080;11.118;2023-02-20T02:55:59;100354.91;;;6.91;83.92
49759;BME280;35654;46.080;11.118;2023-02-20T02:58:47;100353.25;;;6.90;83.93
49759;BME280;35654;46.080;11.118;2023-02-20T03:01:17;100353.66;;;6.82;84.00
49759;BME280;35654;46.080;11.118;2023-02-20T03:03:45;100348.22;;;6.82;84.29
49759;BME280;35654;46.080;11.118;2023-02-20T03:06:34;100350.38;;;6.80;83.69
49759;BME280;35654;46.080;11.118;2023-02-20T03:09:16;100350.38;;;6.80;83.61
49759;BME280;35654;46.080;11.118;2023-02-20T03:11:45;100352.75;;;6.77;84.21
49759;BME280;35654;46.080;11.118;2023-02-20T03:14:27;100359.75;;;6.73;83.98
49759;BME280;35654;46.080;11.118;2023-02-20T03:17:29;100363.56;;;6.72;84.24
49759;BME280;35654;46.080;11.118;2023-02-20T03:20:05;100370.41;;;6.74;84.20
49759;BME280;35654;46.080;11.118;2023-02-20T03:22:42;100376.19;;;6.78;84.20
49759;BME280;35654;46.080;11.118;2023-02-20T03:25:26;100381.16;;;6.81;84.21
49759;BME280;35654;46.080;11.118;2023-02-20T03:28:10;100392.03;;;6.81;84.13
49759;BME280;35654;46.080;11.118;2023-02-20T03:33:30;100390.88;;;6.77;84.22
49759;BME280;35654;46.080;11.118;2023-02-20T03:36:25;100402.00;;;6.75;84.51
49759;BME280;35654;46.080;11.118;2023-02-20T03:39:16;100409.56;;;6.73;84.56
49759;BME280;35654;46.080;11.118;2023-02-20T03:42:05;100401.41;;;6.73;84.04
49759;BME280;35654;46.080;11.118;2023-02-20T03:44:52;100409.25;;;6.70;83.21
49759;BME280;35654;46.080;11.118;2023-02-20T03:47:20;100402.78;;;6.59;82.71
49759;BME280;35654;46.080;11.118;2023-02-20T03:49:49;100412.13;;;6.63;82.37
49759;BME280;35654;46.080;11.118;2023-02-20T03:52:19;100414.75;;;6.58;82.59
49759;BME280;35654;46.080;11.118;2023-02-20T03:54:47;100416.63;;;6.58;82.58
49759;BME280;35654;46.080;11.118;2023-02-20T03:57:35;100418.25;;;6.42;82.93
49759;BME280;35654;46.080;11.118;2023-02-20T04:00:15;100419.47;;;6.23;83.81
49759;BME280;35654;46.080;11.118;2023-02-20T04:02:45;100426.03;;;6.10;84.47
49759;BME280;35654;46.080;11.118;2023-02-20T04:05:20;100433.97;;;6.00;85.29
49759;BME280;35654;46.080;11.118;2023-02-20T04:10:36;100431.84;;;6.02;84.59
49759;BME280;35654;46.080;11.118;2023-02-20T04:13:05;100430.53;;;6.05;84.17
49759;BME280;35654;46.080;11.118;2023-02-20T04:15:32;100433.00;;;6.06;84.28
49759;BME280;35654;46.080;11.118;2023-02-20T04:18:07;100443.06;;;6.06;84.24
49759;BME280;35654;46.080;11.118;2023-02-20T04:20:35;100451.81;;;6.08;84.18
49759;BME280;35654;46.080;11.118;2023-02-20T04:23:05;100444.00;;;6.11;83.93
49759;BME280;35654;46.080;11.118;2023-02-20T04:28:06;100444.38;;;5.92;84.08
49759;BME280;35654;46.080;11.118;2023-02-20T04:30:33;100451.34;;;5.88;83.81
49759;BME280;35654;46.080;11.118;2023-02-20T04:32:59;100446.84;;;5.93;83.62
49759;BME280;35654;46.080;11.118;2023-02-20T04:35:26;100442.72;;;5.91;83.62
49759;BME280;35654;46.080;11.118;2023-02-20T04:37:52;100452.41;;;5.86;83.55
49759;BME280;35654;46.080;11.118;2023-02-20T04:40:21;100454.50;;;5.84;83.95
49759;BME280;35654;46.080;11.118;2023-02-20T04:42:48;100457.03;;;5.86;83.77
49759;BME280;35654;46.080;11.118;2023-02-20T04:45:15;100452.19;;;5.88;83.46
49759;BME280;35654;46.080;11.118;2023-02-20T04:47:45;100462.69;;;5.96;83.00
49759;BME280;35654;46.080;11.118;2023-02-20T04:50:30;100466.25;;;5.97;83.07
49759;BME280;35654;46.080;11.118;2023-02-20T04:52:57;100466.81;;;5.99;82.86
49759;BME280;35654;46.080;11.118;2023-02-20T04:55:24;100473.78;;;5.95;82.75
49759;BME280;35654;46.080;11.118;2023-02-20T04:57:52;100468.25;;;5.90;82.72
49759;BME280;35654;46.080;11.118;2023-02-20T05:00:22;100466.59;;;5.89;83.21
49759;BME280;35654;46.080;11.118;2023-02-20T05:02:48;100474.16;;;5.86;82.64
49759;BME280;35654;46.080;11.118;2023-02-20T05:05:34;100473.09;;;5.88;83.35
49759;BME280;35654;46.080;11.118;2023-02-20T05:08:04;100473.69;;;5.90;83.02
49759;BME280;35654;46.080;11.118;2023-02-20T05:10:32;100478.63;;;5.93;82.63
49759;BME280;35654;46.080;11.118;2023-02-20T05:13:00;100479.72;;;5.92;82.63
49759;BME280;35654;46.080;11.118;2023-02-20T05:15:28;100483.56;;;5.84;82.67
49759;BME280;35654;46.080;11.118;2023-02-20T05:17:55;100487.84;;;5.80;82.95
49759;BME280;35654;46.080;11.118;2023-02-20T05:20:22;100492.44;;;5.68;83.03
49759;BME280;35654;46.080;11.118;2023-02-20T05:23:13;100500.38;;;5.58;83.83
49759;BME280;35654;46.080;11.118;2023-02-20T05:25:41;100502.81;;;5.48;84.21
49759;BME280;35654;46.080;11.118;2023-02-20T05:28:07;100496.78;;;5.46;84.37
49759;BME280;35654;46.080;11.118;2023-02-20T05:30:34;100501.50;;;5.50;84.59
49759;BME280;35654;46.080;11.118;2023-02-20T05:33:00;100500.84;;;5.55;84.40
49759;BME280;35654;46.080;11.118;2023-02-20T05:35:27;100503.53;;;5.55;84.42
49759;BME280;35654;46.080;11.118;2023-02-20T05:37:54;100506.38;;;5.60;84.16
49759;BME280;35654;46.080;11.118;2023-02-20T05:40:19;100508.38;;;5.53;84.58
49759;BME280;35654;46.080;11.118;2023-02-20T05:42:46;100514.38;;;5.43;84.71
49759;BME280;35654;46.080;11.118;2023-02-20T05:45:14;100514.13;;;5.45;85.04
49759;BME280;35654;46.080;11.118;2023-02-20T05:47:41;100511.69;;;5.43;84.99
49759;BME280;35654;46.080;11.118;2023-02-20T05:50:07;100514.97;;;5.45;85.48
49759;BME280;35654;46.080;11.118;2023-02-20T05:52:34;100516.19;;;5.49;85.38
49759;BME280;35654;46.080;11.118;2023-02-20T05:55:01;100517.97;;;5.55;85.13
49759;BME280;35654;46.080;11.118;2023-02-20T05:57:26;100522.69;;;5.60;84.90
49759;BME280;35654;46.080;11.118;2023-02-20T05:59:54;100521.16;;;5.52;85.20
49759;BME280;35654;46.080;11.118;2023-02-20T06:02:20;100533.19;;;5.56;84.96
49759;BME280;35654;46.080;11.118;2023-02-20T06:04:47;100542.41;;;5.55;85.08
49759;BME280;35654;46.080;11.118;2023-02-20T06:07:14;100543.22;;;5.56;85.27
49759;BME280;35654;46.080;11.118;2023-02-20T06:09:43;100542.88;;;5.52;85.01
49759;BME280;35654;46.080;11.118;2023-02-20T06:12:10;100556.94;;;5.49;85.31
49759;BME280;35654;46.080;11.118;2023-02-20T06:14:36;100551.38;;;5.44;84.99
49759;BME280;35654;46.080;11.118;2023-02-20T06:17:03;100554.72;;;5.28;85.84
49759;BME280;35654;46.080;11.118;2023-02-20T06:19:30;100564.63;;;5.22;85.71
49759;BME280;35654;46.080;11.118;2023-02-20T06:21:56;100565.78;;;5.15;85.89
49759;BME280;35654;46.080;11.118;2023-02-20T06:24:24;100570.06;;;5.22;85.65
49759;BME280;35654;46.080;11.118;2023-02-20T06:26:51;100568.16;;;5.23;85.34
49759;BME280;35654;46.080;11.118;2023-02-20T06:29:18;100576.78;;;5.20;85.46
49759;BME280;35654;46.080;11.118;2023-02-20T06:31:45;100580.69;;;5.24;85.48
49759;BME280;35654;46.080;11.118;2023-02-20T06:34:11;100586.34;;;5.22;85.42
49759;BME280;35654;46.080;11.118;2023-02-20T06:36:39;100596.09;;;5.12;85.74
49759;BME280;35654;46.080;11.118;2023-02-20T06:39:09;100596.50;;;5.15;86.36
49759;BME280;35654;46.080;11.118;2023-02-20T06:41:36;100590.66;;;5.30;85.57
49759;BME280;35654;46.080;11.118;2023-02-20T06:44:03;100594.78;;;5.33;84.85
49759;BME280;35654;46.080;11.118;2023-02-20T06:46:30;100593.56;;;5.28;84.47
49759;BME280;35654;46.080;11.118;2023-02-20T06:48:57;100603.25;;;5.24;84.62
49759;BME280;35654;46.080;11.118;2023-02-20T06:51:28;100611.88;;;5.21;84.03
49759;BME280;35654;46.080;11.118;2023-02-20T06:53:55;100610.78;;;5.22;84.29
49759;BME280;35654;46.080;11.118;2023-02-20T06:56:26;100616.22;;;5.22;83.50
49759;BME280;35654;46.080;11.118;2023-02-20T06:58:53;100614.25;;;5.29;83.80
49759;BME280;35654;46.080;11.118;2023-02-20T07:01:22;100621.66;;;5.22;83.87
49759;BME280;35654;46.080;11.118;2023-02-20T07:03:56;100625.94;;;5.30;83.84
49759;BME280;35654;46.080;11.118;2023-02-20T07:06:24;100626.22;;;5.40;83.90
49759;BME280;35654;46.080;11.118;2023-02-20T07:08:50;100630.28;;;5.49;83.18
49759;BME280;35654;46.080;11.118;2023-02-20T07:11:20;100618.28;;;5.68;82.92
49759;BME280;35654;46.080;11.118;2023-02-20T07:13:46;100626.00;;;5.83;81.73
49759;BME280;35654;46.080;11.118;2023-02-20T07:16:11;100624.25;;;5.89;80.51
49759;BME280;35654;46.080;11.118;2023-02-20T07:18:38;100620.94;;;5.86;80.18
49759;BME280;35654;46.080;11.118;2023-02-20T07:21:03;100618.88;;;5.82;80.46
49759;BME280;35654;46.080;11.118;2023-02-20T07:23:29;100623.81;;;5.92;79.65
49759;BME280;35654;46.080;11.118;2023-02-20T07:25:54;100621.41;;;5.95;79.58
49759;BME280;35654;46.080;11.118;2023-02-20T07:28:20;100621.41;;;5.95;79.66
49759;BME280;35654;46.080;11.118;2023-02-20T07:30:47;100623.13;;;5.78;80.07
49759;BME280;35654;46.080;11.118;2023-02-20T07:33:14;100625.25;;;5.76;80.11
49759;BME280;35654;46.080;11.118;2023-02-20T07:35:41;100624.31;;;5.82;79.98
49759;BME280;35654;46.080;11.118;2023-02-20T07:38:08;100624.06;;;5.83;79.99
49759;BME280;35654;46.080;11.118;2023-02-20T07:40:33;100616.41;;;5.80;80.02
49759;BME280;35654;46.080;11.118;2023-02-20T07:43:01;100633.84;;;5.91;79.60
49759;BME280;35654;46.080;11.118;2023-02-20T07:45:28;100626.50;;;6.03;79.65
49759;BME280;35654;46.080;11.118;2023-02-20T07:47:53;100627.22;;;5.99;79.53
49759;BME280;35654;46.080;11.118;2023-02-20T07:50:20;100631.13;;;6.03;79.18
49759;BME280;35654;46.080;11.118;2023-02-20T07:52:45;100626.19;;;6.11;79.12
49759;BME280;35654;46.080;11.118;2023-02-20T07:55:15;100626.75;;;6.02;79.32
49759;BME280;35654;46.080;11.118;2023-02-20T07:57:41;100629.00;;;6.05;79.48
49759;BME280;35654;46.080;11.118;2023-02-20T08:00:13;100627.34;;;6.04;79.60
49759;BME280;35654;46.080;11.118;2023-02-20T08:02:38;100626.50;;;6.03;79.55
49759;BME280;35654;46.080;11.118;2023-02-20T08:05:04;100630.75;;;5.88;79.63
49759;BME280;35654;46.080;11.118;2023-02-20T08:07:29;100626.50;;;5.92;79.84
49759;BME280;35654;46.080;11.118;2023-02-20T08:09:55;100628.28;;;5.98;80.34
49759;BME280;35654;46.080;11.118;2023-02-20T08:12:20;100630.78;;;5.99;79.64
49759;BME280;35654;46.080;11.118;2023-02-20T08:14:49;100628.19;;;6.16;79.51
49759;BME280;35654;46.080;11.118;2023-02-20T08:17:14;100622.38;;;6.01;79.92
49759;BME280;35654;46.080;11.118;2023-02-20T08:19:40;100626.41;;;6.21;79.65
49759;BME280;35654;46.080;11.118;2023-02-20T08:22:05;100622.16;;;6.37;79.08
49759;BME280;35654;46.080;11.118;2023-02-20T08:24:33;100625.69;;;6.49;78.25
49759;BME280;35654;46.080;11.118;2023-02-20T08:27:00;100627.94;;;6.64;76.96
49759;BME280;35654;46.080;11.118;2023-02-20T08:29:26;100621.22;;;6.43;76.55
49759;BME280;35654;46.080;11.118;2023-02-20T08:31:53;100623.22;;;6.48;76.79
49759;BME280;35654;46.080;11.118;2023-02-20T08:34:19;100616.50;;;6.50;76.76
49759;BME280;35654;46.080;11.118;2023-02-20T08:36:46;100616.00;;;6.53;76.35
49759;BME280;35654;46.080;11.118;2023-02-20T08:39:13;100616.94;;;6.59;76.55
49759;BME280;35654;46.080;11.118;2023-02-20T08:41:43;100611.97;;;6.56;76.37
49759;BME280;35654;46.080;11.118;2023-02-20T08:44:11;100614.59;;;6.39;77.40
49759;BME280;35654;46.080;11.118;2023-02-20T08:46:45;100600.63;;;6.24;79.07
49759;BME280;35654;46.080;11.118;2023-02-20T08:49:12;100607.03;;;6.29;78.65
49759;BME280;35654;46.080;11.118;2023-02-20T08:51:38;100604.41;;;6.34;79.09
49759;BME280;35654;46.080;11.118;2023-02-20T08:54:05;100589.75;;;6.59;77.15
49759;BME280;35654;46.080;11.118;2023-02-20T08:56:30;100591.38;;;6.48;77.70
49759;BME280;35654;46.080;11.118;2023-02-20T08:58:56;100597.06;;;6.58;77.49
49759;BME280;35654;46.080;11.118;2023-02-20T09:01:21;100598.31;;;6.79;76.76
49759;BME280;35654;46.080;11.118;2023-02-20T09:03:48;100589.75;;;6.59;76.79
49759;BME280;35654;46.080;11.118;2023-02-20T09:06:15;100593.91;;;6.26;78.46
49759;BME280;35654;46.080;11.118;2023-02-20T09:08:41;100588.44;;;6.38;77.51
49759;BME280;35654;46.080;11.118;2023-02-20T09:11:06;100581.91;;;6.62;76.60
49759;BME280;35654;46.080;11.118;2023-02-20T09:13:32;100578.53;;;6.95;75.74
49759;BME280;35654;46.080;11.118;2023-02-20T09:15:57;100572.97;;;7.18;74.66
49759;BME280;35654;46.080;11.118;2023-02-20T09:18:23;100564.53;;;7.31;73.45
49759;BME280;35654;46.080;11.118;2023-02-20T09:20:48;100570.63;;;7.38;73.06
49759;BME280;35654;46.080;11.118;2023-02-20T09:23:13;100564.63;;;7.53;72.42
49759;BME280;35654;46.080;11.118;2023-02-20T09:25:39;100566.25;;;7.54;71.80
49759;BME280;35654;46.080;11.118;2023-02-20T09:28:04;100563.81;;;7.69;71.42
49759;BME280;35654;46.080;11.118;2023-02-20T09:30:31;100560.09;;;7.75;70.51
49759;BME280;35654;46.080;11.118;2023-02-20T09:32:58;100564.31;;;7.66;70.33
49759;BME280;35654;46.080;11.118;2023-02-20T09:35:29;100561.41;;;7.39;71.19
49759;BME280;35654;46.080;11.118;2023-02-20T09:37:56;100557.97;;;7.04;72.78
49759;BME280;35654;46.080;11.118;2023-02-20T09:40:23;100553.03;;;7.29;72.34
49759;BME280;35654;46.080;11.118;2023-02-20T09:45:19;100556.13;;;7.49;72.37
49759;BME280;35654;46.080;11.118;2023-02-20T09:50:36;100552.41;;;7.72;70.67
49759;BME280;35654;46.080;11.118;2023-02-20T09:55:56;100551.16;;;7.96;70.37
49759;BME280;35654;46.080;11.118;2023-02-20T10:01:24;100541.13;;;8.18;69.90
49759;BME280;35654;46.080;11.118;2023-02-20T10:04:03;100536.56;;;8.24;69.71
49759;BME280;35654;46.080;11.118;2023-02-20T10:06:33;100534.59;;;8.36;69.21
49759;BME280;35654;46.080;11.118;2023-02-20T10:09:02;100544.19;;;8.22;69.67
49759;BME280;35654;46.080;11.118;2023-02-20T10:17:42;100551.00;;;8.79;68.79
49759;BME280;35654;46.080;11.118;2023-02-20T10:25:48;100554.28;;;9.30;66.21
49759;BME280;35654;46.080;11.118;2023-02-20T10:28:17;100565.81;;;9.32;64.84
49759;BME280;35654;46.080;11.118;2023-02-20T10:38:36;100560.44;;;9.15;65.82
49759;BME280;35654;46.080;11.118;2023-02-20T10:41:19;100561.59;;;8.98;67.35
49759;BME280;35654;46.080;11.118;2023-02-20T10:43:54;100558.16;;;8.86;68.13
49759;BME280;35654;46.080;11.118;2023-02-20T10:46:37;100548.13;;;8.91;67.76
49759;BME280;35654;46.080;11.118;2023-02-20T10:49:09;100545.03;;;9.04;67.76
49759;BME280;35654;46.080;11.118;2023-02-20T10:51:44;100548.88;;;9.08;68.04
49759;BME280;35654;46.080;11.118;2023-02-20T10:57:10;100531.78;;;9.18;67.42
49759;BME280;35654;46.080;11.118;2023-02-20T10:59:50;100533.06;;;9.37;66.83
49759;BME280;35654;46.080;11.118;2023-02-20T11:02:24;100535.41;;;9.55;65.95
49759;BME280;35654;46.080;11.118;2023-02-20T11:04:56;100532.41;;;9.88;64.02
49759;BME280;35654;46.080;11.118;2023-02-20T11:07:24;100525.28;;;9.87;64.13
49759;BME280;35654;46.080;11.118;2023-02-20T11:09:50;100528.28;;;9.86;64.38
49759;BME280;35654;46.080;11.118;2023-02-20T11:12:41;100523.47;;;10.03;64.02
49759;BME280;35654;46.080;11.118;2023-02-20T11:15:11;100515.47;;;10.28;62.73
49759;BME280;35654;46.080;11.118;2023-02-20T11:17:39;100519.28;;;10.27;62.85
49759;BME280;35654;46.080;11.118;2023-02-20T11:20:05;100509.06;;;10.65;61.48
49759;BME280;35654;46.080;11.118;2023-02-20T11:22:51;100506.06;;;10.66;60.50
49759;BME280;35654;46.080;11.118;2023-02-20T11:25:25;100501.75;;;10.85;60.11
49759;BME280;35654;46.080;11.118;2023-02-20T11:30:40;100498.00;;;11.37;58.47
49759;BME280;35654;46.080;11.118;2023-02-20T11:35:39;100485.44;;;11.66;56.93
49759;BME280;35654;46.080;11.118;2023-02-20T11:40:46;100485.09;;;12.18;55.05
49759;BME280;35654;46.080;11.118;2023-02-20T11:45:39;100475.38;;;12.56;54.13
49759;BME280;35654;46.080;11.118;2023-02-20T11:48:16;100465.41;;;12.75;52.76
49759;BME280;35654;46.080;11.118;2023-02-20T11:50:48;100472.09;;;13.08;51.93
49759;BME280;35654;46.080;11.118;2023-02-20T11:53:28;100464.16;;;13.40;51.68
49759;BME280;35654;46.080;11.118;2023-02-20T11:56:17;100455.47;;;13.90;50.50
49759;BME280;35654;46.080;11.118;2023-02-20T11:58:45;100445.59;;;14.61;47.59
49759;BME280;35654;46.080;11.118;2023-02-20T12:01:33;100440.19;;;15.30;46.37
49759;BME280;35654;46.080;11.118;2023-02-20T12:04:00;100433.78;;;15.35;46.06
49759;BME280;35654;46.080;11.118;2023-02-20T12:06:40;100432.47;;;16.10;44.17
49759;BME280;35654;46.080;11.118;2023-02-20T12:09:14;100422.34;;;17.76;41.19
49759;BME280;35654;46.080;11.118;2023-02-20T12:11:42;100423.72;;;18.57;38.46
49759;BME280;35654;46.080;11.118;2023-02-20T12:14:12;100412.53;;;19.31;38.08
49759;BME280;35654;46.080;11.118;2023-02-20T12:20:02;100392.59;;;20.77;34.34
49759;BME280;35654;46.080;11.118;2023-02-20T12:22:40;100390.38;;;22.22;31.98
49759;BME280;35654;46.080;11.118;2023-02-20T12:31:45;100355.44;;;21.68;32.59
49759;BME280;35654;46.080;11.118;2023-02-20T12:40:38;100337.63;;;20.45;34.80
49759;BME280;35654;46.080;11.118;2023-02-20T12:46:05;100325.34;;;21.73;32.42
49759;BME280;35654;46.080;11.118;2023-02-20T12:57:46;100295.63;;;23.45;28.89
49759;BME280;35654;46.080;11.118;2023-02-20T13:00:32;100290.88;;;24.59;27.68
49759;BME280;35654;46.080;11.118;2023-02-20T13:06:02;100268.06;;;26.54;25.34
49759;BME280;35654;46.080;11.118;2023-02-20T13:11:04;100243.72;;;28.16;23.28
49759;BME280;35654;46.080;11.118;2023-02-20T13:14:00;100234.25;;;26.47;24.40
49759;BME280;35654;46.080;11.118;2023-02-20T13:16:55;100229.50;;;24.15;27.71
49759;BME280;35654;46.080;11.118;2023-02-20T13:22:14;100212.44;;;25.16;26.45
49759;BME280;35654;46.080;11.118;2023-02-20T13:24:41;100206.28;;;24.88;26.91
49759;BME280;35654;46.080;11.118;2023-02-20T13:27:10;100203.91;;;25.77;25.66
49759;BME280;35654;46.080;11.118;2023-02-20T13:29:58;100201.75;;;25.44;25.86
49759;BME280;35654;46.080;11.118;2023-02-20T13:32:30;100187.84;;;25.74;25.81
49759;BME280;35654;46.080;11.118;2023-02-20T13:35:33;100182.41;;;25.85;25.51
49759;BME280;35654;46.080;11.118;2023-02-20T13:38:29;100180.03;;;25.87;25.43
49759;BME280;35654;46.080;11.118;2023-02-20T13:41:06;100163.72;;;26.22;24.75
49759;BME280;35654;46.080;11.118;2023-02-20T13:43:35;100167.50;;;27.00;24.37
49759;BME280;35654;46.080;11.118;2023-02-20T13:48:40;100156.72;;;26.39;24.68
49759;BME280;35654;46.080;11.118;2023-02-20T13:56:45;100138.91;;;26.91;24.07
49759;BME280;35654;46.080;11.118;2023-02-20T13:59:16;100137.47;;;27.51;23.57
49759;BME280;35654;46.080;11.118;2023-02-20T14:05:05;100144.53;;;27.35;23.16
49759;BME280;35654;46.080;11.118;2023-02-20T14:07:34;100144.06;;;27.26;23.25
49759;BME280;35654;46.080;11.118;2023-02-20T14:10:36;100133.41;;;26.35;23.65
49759;BME280;35654;46.080;11.118;2023-02-20T14:15:56;100125.75;;;24.81;25.60
49759;BME280;35654;46.080;11.118;2023-02-20T14:18:33;100134.38;;;25.64;25.01
49759;BME280;35654;46.080;11.118;2023-02-20T14:21:20;100131.13;;;24.52;25.83
49759;BME280;35654;46.080;11.118;2023-02-20T14:23:49;100127.00;;;24.84;25.76
49759;BME280;35654;46.080;11.118;2023-02-20T14:26:25;100119.13;;;25.38;24.84
49759;BME280;35654;46.080;11.118;2023-02-20T14:28:53;100118.03;;;24.98;25.72
49759;BME280;35654;46.080;11.118;2023-02-20T14:31:37;100123.97;;;25.15;25.10
49759;BME280;35654;46.080;11.118;2023-02-20T14:43:16;100108.81;;;23.16;28.34
49759;BME280;35654;46.080;11.118;2023-02-20T14:45:44;100103.09;;;24.90;26.29
49759;BME280;35654;46.080;11.118;2023-02-20T14:48:24;100104.44;;;24.58;26.28
49759;BME280;35654;46.080;11.118;2023-02-20T14:51:15;100107.81;;;25.09;25.52
49759;BME280;35654;46.080;11.118;2023-02-20T14:53:44;100099.41;;;23.90;26.90
49759;BME280;35654;46.080;11.118;2023-02-20T14:56:17;100106.81;;;24.56;26.27
49759;BME280;35654;46.080;11.118;2023-02-20T14:58:45;100112.03;;;23.65;27.55
49759;BME280;35654;46.080;11.118;2023-02-20T15:01:38;100108.09;;;23.50;27.62
49759;BME280;35654;46.080;11.118;2023-02-20T15:04:14;100107.69;;;24.60;26.48
49759;BME280;35654;46.080;11.118;2023-02-20T15:06:43;100110.72;;;23.43;27.41
49759;BME280;35654;46.080;11.118;2023-02-20T15:09:11;100099.03;;;22.63;28.98
49759;BME280;35654;46.080;11.118;2023-02-20T15:12:05;100103.03;;;20.98;31.43
49759;BME280;35654;46.080;11.118;2023-02-20T15:14:41;100118.13;;;19.69;33.37
49759;BME280;35654;46.080;11.118;2023-02-20T15:17:23;100121.75;;;18.94;34.89
49759;BME280;35654;46.080;11.118;2023-02-20T15:19:51;100112.91;;;18.54;35.44
49759;BME280;35654;46.080;11.118;2023-02-20T15:22:34;100111.81;;;17.95;36.85
49759;BME280;35654;46.080;11.118;2023-02-20T15:28:27;100114.53;;;16.51;40.29
49759;BME280;35654;46.080;11.118;2023-02-20T15:31:19;100122.91;;;16.15;40.92